Cannonsburg, Michigan
Current Conditions -  °F | °C
As of 9:19 PM on Monday 22 Dec 2014 (Local Time) from KGRR Reporting Station
Light Rain Light Rain  
Wind Chill: 26°   Ceiling: 3700
Heat Index: 35°   Visibility: 3mi
Dew Point: 32°   Wind: 14mph
Humidity: 89%   Direction: 90°E
Pressure: 29.81"   Gusts: NA
Location:  43.07°N, 85.44°W
Report Text: KGRR 230219Z 09012KT 3SM -RA BR FEW007 OVC037 02/00 A2981 RMK AO2 P0003 T00170000
Loading
Personal Weather Stations






























Interactive Weather Map New forecast layout! Learn more

10-Day Weather Forecast

Advertisements
Track Severe Weather on mobile